Terminal Aerodrome Forecast
Issued by NWS

Home | Current Version | Previous Version | Graphics & Text | Print | Product List | Glossary On
Versions: 1 2 3 4 5 6 7 8 9 10 11 12 13 14 15
787
FTUS43 KOAX 292320
TAFCDR
TAF
KCDR 292320Z 3000/3024 08007KT P6SM SCT060
     FM300300 20008KT P6SM SCT050
     FM301500 24013G24KT P6SM SCT050=

USA.gov is the U.S. government's official web portal to all federal, state and local government web resources and services.